Time;durP1;ratioP1;P1;durP2;ratioP2;P2;SDS_P1;SDS_P2;PMS_P1;PMS_P2;Temp;Humidity;BMP_temperature;BMP_pressure;BME280_temperature;BME280_humidity;BME280_pressure;Samples;Min_cycle;Max_cycle;Signal;HPM_P1;HPM_P2
2022/03/21 00:00:57;;;;;;;45.25;28.88;;;5.90;69.40;;;;;;5083035;28;20028;-60
2022/03/21 00:03:25;;;;;;;39.28;23.38;;;5.90;69.40;;;;;;5071030;28;20082;-60
2022/03/21 00:05:51;;;;;;;40.85;24.58;;;5.80;69.40;;;;;;5067500;28;20035;-56
2022/03/21 00:08:20;;;;;;;40.40;25.63;;;5.80;69.40;;;;;;5081399;28;20032;-55
2022/03/21 00:10:46;;;;;;;36.42;20.10;;;5.80;69.50;;;;;;5087225;28;20024;-57
2022/03/21 00:13:15;;;;;;;38.85;22.40;;;5.70;69.60;;;;;;5093175;28;20119;-57
2022/03/21 00:15:46;;;;;;;39.10;19.58;;;5.70;69.60;;;;;;5079113;28;20063;-60
2022/03/21 00:18:13;;;;;;;43.95;23.52;;;5.70;69.60;;;;;;5081481;28;20111;-54
2022/03/21 00:20:44;;;;;;;39.33;24.10;;;5.70;69.90;;;;;;5088808;28;20021;-57
2022/03/21 00:23:10;;;;;;;42.25;24.02;;;5.60;69.80;;;;;;5088290;28;20360;-56
2022/03/21 00:25:37;;;;;;;37.65;23.58;;;5.60;70.00;;;;;;5078435;28;20024;-55
2022/03/21 00:28:03;;;;;;;39.45;23.63;;;5.60;70.00;;;;;;5070954;28;20025;-53
2022/03/21 00:30:29;;;;;;;46.60;23.30;;;5.60;70.10;;;;;;5072410;28;20028;-60
2022/03/21 00:32:56;;;;;;;42.58;26.85;;;5.50;70.00;;;;;;5082437;28;20053;-60
2022/03/21 00:35:22;;;;;;;44.45;25.02;;;5.60;70.00;;;;;;5078972;28;20040;-57
2022/03/21 00:37:48;;;;;;;40.85;26.63;;;5.50;69.90;;;;;;5068128;28;20043;-57
2022/03/21 00:40:16;;;;;;;39.38;24.02;;;5.50;69.70;;;;;;5072188;28;20040;-55
2022/03/21 00:42:43;;;;;;;42.35;25.73;;;5.40;69.60;;;;;;5079508;28;20123;-55
2022/03/21 00:45:18;;;;;;;36.90;23.00;;;5.40;69.50;;;;;;5068327;28;20029;-57
2022/03/21 00:47:45;;;;;;;41.55;25.52;;;5.40;69.50;;;;;;5086231;28;20020;-60
2022/03/21 00:50:12;;;;;;;42.88;27.38;;;5.40;69.40;;;;;;5077007;28;20471;-61
2022/03/21 00:52:40;;;;;;;41.80;24.23;;;5.30;69.40;;;;;;5086091;28;20383;-53
2022/03/21 00:55:06;;;;;;;43.38;25.25;;;5.30;69.40;;;;;;5078971;28;20466;-56
2022/03/21 00:57:33;;;;;;;43.97;27.15;;;5.20;69.40;;;;;;5070700;28;20040;-60
2022/03/21 00:59:58;;;;;;;40.60;24.35;;;5.20;69.60;;;;;;5083157;28;20600;-60
2022/03/21 01:02:24;;;;;;;40.75;24.55;;;5.20;69.80;;;;;;5072920;28;20135;-61
2022/03/21 01:04:50;;;;;;;43.97;26.02;;;5.20;69.80;;;;;;5086608;28;20029;-61
2022/03/21 01:07:15;;;;;;;44.08;27.45;;;5.10;69.70;;;;;;5089027;28;20036;-61
2022/03/21 01:09:41;;;;;;;44.47;25.98;;;5.10;69.70;;;;;;5086571;28;20024;-61
2022/03/21 01:12:09;;;;;;;45.40;24.88;;;5.10;69.70;;;;;;5074046;28;20411;-60
2022/03/21 01:14:35;;;;;;;40.90;22.08;;;5.10;69.70;;;;;;5091915;28;20048;-56
2022/03/21 01:17:00;;;;;;;45.25;24.98;;;5.10;69.70;;;;;;5081953;28;20029;-57
2022/03/21 01:19:30;;;;;;;34.83;17.73;;;5.00;69.80;;;;;;5081587;28;20036;-56
2022/03/21 01:21:56;;;;;;;1999.90;999.90;;;5.00;69.90;;;;;;5075488;28;20377;-58
2022/03/21 01:24:22;;;;;;;50.35;36.85;;;5.00;70.00;;;;;;5072429;28;20040;-55
2022/03/21 01:26:47;;;;;;;42.13;21.25;;;5.00;70.00;;;;;;5076138;28;20032;-60
2022/03/21 01:29:13;;;;;;;49.05;35.20;;;4.90;70.00;;;;;;5070747;28;20099;-55
2022/03/21 01:31:38;;;;;;;187.70;59.20;;;4.90;70.10;;;;;;5075456;28;20061;-58
2022/03/21 01:34:04;;;;;;;206.60;109.72;;;4.90;70.10;;;;;;5089527;28;20040;-53
2022/03/21 01:36:30;;;;;;;41.05;25.02;;;4.90;70.20;;;;;;5089142;28;20434;-56
2022/03/21 01:38:55;;;;;;;43.03;28.67;;;4.80;70.30;;;;;;5091105;28;20031;-58
2022/03/21 01:41:21;;;;;;;42.97;25.80;;;4.80;70.40;;;;;;5076190;28;20039;-57
2022/03/21 01:44:02;;;;;;;43.55;25.67;;;4.80;70.70;;;;;;5071686;28;20052;-56
2022/03/21 01:46:28;;;;;;;43.60;24.08;;;4.80;70.70;;;;;;5070258;28;20368;-57
2022/03/21 01:48:55;;;;;;;44.42;24.92;;;4.80;70.70;;;;;;5071341;28;20050;-57
2022/03/21 01:51:21;;;;;;;30.00;16.10;;;4.80;70.80;;;;;;5074437;28;20036;-55
2022/03/21 01:56:31;;;;;;;34.78;29.60;;;4.70;71.40;;;;;;5087972;28;20039;-54
2022/03/21 01:58:57;;;;;;;53.33;32.05;;;4.70;71.70;;;;;;5079425;28;20382;-61
2022/03/21 02:01:23;;;;;;;69.88;42.05;;;4.70;71.90;;;;;;5090036;28;20020;-57
2022/03/21 02:03:50;;;;;;;59.80;37.33;;;4.70;72.10;;;;;;5089387;28;20383;-60
2022/03/21 02:06:16;;;;;;;59.17;37.50;;;4.70;72.30;;;;;;5089678;28;20134;-61
2022/03/21 02:08:43;;;;;;;61.78;36.78;;;4.60;72.30;;;;;;5090891;28;20032;-56
2022/03/21 02:11:09;;;;;;;64.07;39.33;;;4.60;72.30;;;;;;5090607;28;20055;-60
2022/03/21 02:13:35;;;;;;;57.60;38.10;;;4.60;72.20;;;;;;5090161;28;20032;-57
2022/03/21 02:16:01;;;;;;;60.28;38.08;;;4.60;72.20;;;;;;5089199;28;20020;-58
2022/03/21 02:18:28;;;;;;;171.93;157.90;;;4.60;72.20;;;;;;5089512;28;20081;-58
2022/03/21 02:20:56;;;;;;;1.95;1.85;;;4.50;71.90;;;;;;5095590;28;20142;-55
2022/03/21 02:23:41;;;;;;;56.90;37.03;;;4.50;71.90;;;;;;5095405;28;20032;-56
2022/03/21 02:26:12;;;;;;;60.28;37.00;;;4.50;72.00;;;;;;5083600;28;20162;-57
2022/03/21 02:28:39;;;;;;;60.85;37.80;;;4.50;72.00;;;;;;5084127;28;20073;-57
2022/03/21 02:31:05;;;;;;;63.72;39.42;;;4.50;72.00;;;;;;5083483;28;20040;-55
2022/03/21 02:33:31;;;;;;;58.90;39.15;;;4.40;72.00;;;;;;5087258;28;20045;-56
2022/03/21 02:35:58;;;;;;;51.35;29.58;;;4.40;72.10;;;;;;5068316;28;20051;-56
2022/03/21 02:38:25;;;;;;;51.17;34.67;;;4.40;72.10;;;;;;5070059;28;20371;-55
2022/03/21 02:40:51;;;;;;;50.10;33.90;;;4.40;72.00;;;;;;5071380;28;20024;-55
2022/03/21 02:43:16;;;;;;;50.97;34.42;;;4.40;71.90;;;;;;5069122;28;20063;-54
2022/03/21 02:45:42;;;;;;;37.33;27.10;;;4.40;72.20;;;;;;5081021;28;20024;-50
2022/03/21 02:48:09;;;;;;;53.85;34.75;;;4.40;72.80;;;;;;5080130;28;20568;-55
2022/03/21 02:50:41;;;;;;;49.22;33.25;;;4.40;73.10;;;;;;5083777;28;20036;-57
2022/03/21 02:53:10;;;;;;;49.55;33.20;;;4.30;72.90;;;;;;5076270;28;20035;-57
2022/03/21 02:55:36;;;;;;;50.05;33.20;;;4.30;72.70;;;;;;5069471;28;20454;-60
2022/03/21 02:58:02;;;;;;;46.08;30.83;;;4.30;72.70;;;;;;5069134;28;20028;-60
2022/03/21 03:00:28;;;;;;;49.17;32.42;;;4.30;72.70;;;;;;5076746;28;20515;-61
2022/03/21 03:02:54;;;;;;;46.55;31.27;;;4.20;72.60;;;;;;5089450;28;20032;-57
2022/03/21 03:05:20;;;;;;;48.85;30.52;;;4.20;72.50;;;;;;5078731;28;20039;-57
2022/03/21 03:07:46;;;;;;;44.13;30.50;;;4.20;72.50;;;;;;5073837;28;20028;-57
2022/03/21 03:10:12;;;;;;;46.97;30.35;;;4.20;72.60;;;;;;5081709;28;20039;-56
2022/03/21 03:12:37;;;;;;;45.42;29.27;;;4.20;72.60;;;;;;5081230;28;20029;-60
2022/03/21 03:15:04;;;;;;;44.35;30.98;;;4.20;72.50;;;;;;5083709;28;20146;-60
2022/03/21 03:17:30;;;;;;;46.80;29.27;;;4.10;72.50;;;;;;5068131;28;20059;-60
2022/03/21 03:19:55;;;;;;;44.25;27.77;;;4.10;72.50;;;;;;5070650;28;20068;-54
2022/03/21 03:22:25;;;;;;;43.22;28.35;;;4.10;72.60;;;;;;5069576;28;20033;-60
2022/03/21 03:24:52;;;;;;;41.90;27.50;;;4.10;72.80;;;;;;5077791;28;20027;-56
2022/03/21 03:27:17;;;;;;;46.08;27.15;;;4.00;72.90;;;;;;5081500;28;20441;-58
2022/03/21 03:29:43;;;;;;;39.95;27.08;;;4.00;73.80;;;;;;5067372;28;20024;-54
2022/03/21 03:32:09;;;;;;;41.05;25.48;;;4.00;73.20;;;;;;5076920;28;20119;-60
2022/03/21 03:34:35;;;;;;;40.83;25.58;;;4.00;73.20;;;;;;5081492;28;20042;-58
2022/03/21 03:37:02;;;;;;;42.38;26.50;;;4.00;73.20;;;;;;5088736;28;20035;-57
2022/03/21 03:39:29;;;;;;;40.15;24.92;;;4.00;73.20;;;;;;5089245;28;20024;-60
2022/03/21 03:41:55;;;;;;;38.67;23.73;;;4.00;73.20;;;;;;5086451;28;20123;-60
2022/03/21 03:44:23;;;;;;;37.50;23.48;;;4.00;73.30;;;;;;5089126;28;20039;-59
2022/03/21 03:46:49;;;;;;;39.40;22.90;;;3.90;73.30;;;;;;5088393;28;20040;-60
2022/03/21 03:49:15;;;;;;;37.45;23.40;;;3.90;73.30;;;;;;5088777;28;20046;-55
2022/03/21 03:51:40;;;;;;;37.22;22.38;;;3.90;73.20;;;;;;5089167;28;20040;-60
2022/03/21 03:54:06;;;;;;;34.40;21.77;;;3.90;73.30;;;;;;5088512;28;20461;-54
2022/03/21 03:56:32;;;;;;;34.65;21.98;;;3.90;73.40;;;;;;5088032;28;20530;-60
2022/03/21 03:58:57;;;;;;;35.72;22.27;;;3.90;73.30;;;;;;5091327;28;20095;-60
2022/03/21 04:01:23;;;;;;;32.58;20.40;;;3.90;73.30;;;;;;5097195;28;20092;-60
2022/03/21 04:03:49;;;;;;;34.00;21.33;;;3.90;73.40;;;;;;5084269;28;20028;-55
2022/03/21 04:06:16;;;;;;;34.80;21.42;;;3.90;73.50;;;;;;5088461;28;20040;-56
2022/03/21 04:08:43;;;;;;;30.30;19.92;;;3.90;73.60;;;;;;5088783;28;20029;-60
2022/03/21 04:11:09;;;;;;;33.08;20.63;;;3.80;73.60;;;;;;5088591;28;20074;-60
2022/03/21 04:13:35;;;;;;;32.88;20.63;;;3.80;73.80;;;;;;5084784;28;20036;-54
2022/03/21 04:16:01;;;;;;;33.88;21.35;;;3.90;74.40;;;;;;5078002;28;20044;-55
2022/03/21 04:18:27;;;;;;;29.83;20.67;;;3.80;74.80;;;;;;5067277;28;20032;-55
2022/03/21 04:20:53;;;;;;;33.05;19.90;;;3.80;74.60;;;;;;5074151;28;20031;-60
2022/03/21 04:23:19;;;;;;;32.85;19.83;;;3.80;74.40;;;;;;5086874;28;20028;-60
2022/03/21 04:25:46;;;;;;;33.15;20.13;;;3.80;74.20;;;;;;5088371;28;21008;-60
2022/03/21 04:28:12;;;;;;;33.25;19.90;;;3.80;74.20;;;;;;5069847;28;20516;-55
2022/03/21 04:30:38;;;;;;;30.92;19.08;;;3.80;73.90;;;;;;5094699;28;20020;-60
2022/03/21 04:33:12;;;;;;;31.30;18.92;;;3.80;73.80;;;;;;5084987;28;20063;-60
2022/03/21 04:35:38;;;;;;;30.85;18.55;;;3.80;73.70;;;;;;5078134;28;20031;-60
2022/03/21 04:38:12;;;;;;;32.08;19.95;;;3.80;73.70;;;;;;5072262;28;20479;-60
2022/03/21 04:40:39;;;;;;;31.02;18.90;;;3.80;73.80;;;;;;5072875;28;20056;-57
2022/03/21 04:43:04;;;;;;;31.25;20.30;;;3.70;73.80;;;;;;5085119;28;20483;-56
2022/03/21 04:45:30;;;;;;;30.20;19.33;;;3.70;73.80;;;;;;5092202;28;20016;-57
2022/03/21 04:47:56;;;;;;;31.67;18.77;;;3.70;74.00;;;;;;5074224;28;20063;-56
2022/03/21 04:50:22;;;;;;;30.30;18.63;;;3.70;74.10;;;;;;5081777;28;20383;-60
2022/03/21 04:52:47;;;;;;;27.70;17.40;;;3.70;74.10;;;;;;5081439;28;20032;-60
2022/03/21 04:55:15;;;;;;;32.92;18.83;;;3.60;74.00;;;;;;5081390;28;20039;-60
2022/03/21 04:57:41;;;;;;;30.25;18.83;;;3.60;74.10;;;;;;5077616;28;20108;-60
2022/03/21 05:00:07;;;;;;;28.48;17.75;;;3.60;74.10;;;;;;5090687;28;20546;-60
2022/03/21 05:02:33;;;;;;;28.10;16.98;;;3.60;74.00;;;;;;5076172;28;20036;-60
2022/03/21 05:04:58;;;;;;;26.73;17.27;;;3.60;74.10;;;;;;5071653;28;20092;-60
2022/03/21 05:07:25;;;;;;;29.33;17.35;;;3.60;74.20;;;;;;5078210;28;20043;-60
2022/03/21 05:09:51;;;;;;;27.42;16.73;;;3.60;74.10;;;;;;5070520;28;20067;-60
2022/03/21 05:12:17;;;;;;;27.65;17.92;;;3.50;74.10;;;;;;5071068;28;20028;-60
2022/03/21 05:14:43;;;;;;;26.83;17.25;;;3.50;74.10;;;;;;5072062;28;20391;-60
2022/03/21 05:17:11;;;;;;;26.60;17.13;;;3.50;74.30;;;;;;5080333;28;20039;-56
2022/03/21 05:19:40;;;;;;;31.00;17.20;;;3.50;74.40;;;;;;5089116;28;20395;-60
2022/03/21 05:22:07;;;;;;;28.98;18.25;;;3.50;74.40;;;;;;5081340;28;20043;-55
2022/03/21 05:35:52;;;;;;;26.67;16.88;;;3.40;74.60;;;;;;5088138;28;20059;-51
2022/03/21 05:38:22;;;;;;;24.92;15.95;;;3.30;74.80;;;;;;5080430;28;20051;-54
2022/03/21 05:40:48;;;;;;;24.83;15.73;;;3.30;74.90;;;;;;5089075;28;20099;-60
2022/03/21 05:43:14;;;;;;;26.25;16.15;;;3.30;75.00;;;;;;5081899;28;20771;-60
2022/03/21 05:45:41;;;;;;;23.30;15.73;;;3.30;75.00;;;;;;5082514;28;20029;-60
2022/03/21 05:50:51;;;;;;;23.30;15.40;;;3.30;75.00;;;;;;5070519;28;20043;-60
2022/03/21 05:53:18;;;;;;;24.73;16.20;;;3.30;75.00;;;;;;5081336;28;20040;-55
2022/03/21 05:55:45;;;;;;;24.02;15.98;;;3.30;75.10;;;;;;5083609;28;20094;-60
2022/03/21 05:58:11;;;;;;;25.98;15.88;;;3.30;75.10;;;;;;5076533;28;20036;-60
2022/03/21 06:00:37;;;;;;;25.95;15.75;;;3.30;75.10;;;;;;5089984;28;20031;-56
2022/03/21 06:03:08;;;;;;;28.23;16.02;;;3.30;75.10;;;;;;5087951;28;20032;-59
2022/03/21 06:05:35;;;;;;;23.50;15.60;;;3.30;75.10;;;;;;5084879;28;20507;-60
2022/03/21 06:08:01;;;;;;;25.05;15.43;;;3.30;75.10;;;;;;5071469;28;20055;-60
2022/03/21 06:10:27;;;;;;;24.45;15.52;;;3.40;75.30;;;;;;5084073;28;20055;-60
2022/03/21 06:12:53;;;;;;;22.00;14.80;;;3.40;75.20;;;;;;5073186;28;20103;-60
2022/03/21 06:15:19;;;;;;;27.42;15.65;;;3.40;75.30;;;;;;5084673;28;20094;-60
2022/03/21 06:17:45;;;;;;;23.92;14.75;;;3.40;75.40;;;;;;5070206;28;20036;-60
2022/03/21 06:20:12;;;;;;;23.55;14.60;;;3.50;75.60;;;;;;5070599;28;20040;-60
2022/03/21 06:22:38;;;;;;;26.17;15.43;;;3.50;75.70;;;;;;5086293;28;20039;-60
2022/03/21 06:25:05;;;;;;;22.55;14.73;;;3.50;75.80;;;;;;5088272;28;20024;-60
2022/03/21 06:27:32;;;;;;;20.65;13.60;;;3.50;76.00;;;;;;5069525;28;20039;-60
2022/03/21 06:29:58;;;;;;;23.13;15.15;;;3.50;76.00;;;;;;5069758;28;20052;-57
2022/03/21 06:32:24;;;;;;;23.67;15.30;;;3.60;76.20;;;;;;5078408;28;20218;-55
2022/03/21 06:34:51;;;;;;;24.30;14.93;;;3.60;76.30;;;;;;5088836;28;20498;-52
2022/03/21 06:37:17;;;;;;;21.80;14.85;;;3.60;76.40;;;;;;5089739;28;20048;-53
2022/03/21 06:39:42;;;;;;;22.63;15.45;;;3.70;76.40;;;;;;5089300;28;20024;-60
2022/03/21 06:42:11;;;;;;;26.15;16.55;;;3.70;76.50;;;;;;5092814;28;20042;-55
2022/03/21 06:44:37;;;;;;;23.00;14.07;;;3.70;76.50;;;;;;5077828;28;20028;-54
2022/03/21 06:47:03;;;;;;;25.80;16.58;;;3.80;76.70;;;;;;5072629;28;20476;-57
2022/03/21 06:49:30;;;;;;;23.02;15.15;;;3.80;76.70;;;;;;5074744;28;20036;-54
2022/03/21 06:52:02;;;;;;;21.13;14.48;;;3.90;76.90;;;;;;5070145;28;20114;-60
2022/03/21 06:54:29;;;;;;;24.35;16.00;;;3.90;77.10;;;;;;5080899;28;20089;-54
2022/03/21 06:56:55;;;;;;;25.83;15.15;;;4.00;77.20;;;;;;5073127;28;20104;-57
2022/03/21 06:59:21;;;;;;;22.13;15.13;;;4.10;77.30;;;;;;5085481;28;20111;-60
2022/03/21 07:01:47;;;;;;;21.25;14.35;;;4.10;77.20;;;;;;5079838;28;20089;-60
2022/03/21 07:04:13;;;;;;;22.50;14.88;;;4.20;77.20;;;;;;5069101;28;20032;-55
2022/03/21 07:06:38;;;;;;;23.55;14.73;;;4.30;77.30;;;;;;5071143;28;20021;-59
2022/03/21 07:09:04;;;;;;;25.35;15.80;;;4.40;77.50;;;;;;5073724;28;20032;-59
2022/03/21 07:11:32;;;;;;;26.05;16.60;;;4.50;77.70;;;;;;5072972;28;20093;-60
2022/03/21 07:13:57;;;;;;;24.88;15.48;;;4.60;77.90;;;;;;5085820;28;20036;-60
2022/03/21 07:16:23;;;;;;;26.70;16.75;;;4.60;78.10;;;;;;5087848;28;20375;-57
2022/03/21 07:18:49;;;;;;;27.40;18.17;;;4.70;78.30;;;;;;5074418;28;20486;-58
2022/03/21 07:21:16;;;;;;;28.77;17.80;;;4.80;78.60;;;;;;5084903;28;20043;-57
2022/03/21 07:23:42;;;;;;;27.33;17.40;;;4.90;78.80;;;;;;5076321;28;20028;-57
2022/03/21 07:26:08;;;;;;;25.13;16.70;;;5.00;79.00;;;;;;5075220;28;20028;-58
2022/03/21 07:28:34;;;;;;;30.17;19.02;;;5.10;79.10;;;;;;5074051;28;20036;-56
2022/03/21 07:31:00;;;;;;;28.40;18.95;;;5.20;79.90;;;;;;5088817;28;20502;-57
2022/03/21 07:33:25;;;;;;;29.05;18.38;;;5.30;79.30;;;;;;5087941;28;20051;-57
2022/03/21 07:35:51;;;;;;;27.75;18.33;;;5.40;79.50;;;;;;5074375;28;20029;-57
2022/03/21 07:38:22;;;;;;;28.95;19.25;;;5.50;79.60;;;;;;5077560;28;20123;-57
2022/03/21 07:40:49;;;;;;;30.67;20.00;;;5.60;79.70;;;;;;5074937;28;20467;-55
2022/03/21 07:43:15;;;;;;;39.20;23.35;;;5.70;79.70;;;;;;5072105;28;20056;-59
2022/03/21 07:48:27;;;;;;;36.53;24.20;;;5.80;79.90;;;;;;5082022;28;20044;-60
2022/03/21 07:50:53;;;;;;;33.58;22.00;;;5.90;79.90;;;;;;5076574;28;20032;-60
2022/03/21 07:53:19;;;;;;;32.85;21.65;;;6.00;79.90;;;;;;5068758;28;20535;-57
2022/03/21 07:55:45;;;;;;;0.00;0.00;;;6.10;80.00;;;;;;5079424;28;20442;-56
2022/03/21 07:58:10;;;;;;;11.20;8.95;;;6.10;79.90;;;;;;5076116;28;20443;-58
2022/03/21 08:00:36;;;;;;;19.38;13.93;;;6.20;79.90;;;;;;5080238;28;20057;-60
2022/03/21 08:03:03;;;;;;;20.30;12.98;;;6.20;79.80;;;;;;5071749;28;20060;-57
2022/03/21 08:05:29;;;;;;;16.15;12.30;;;6.30;79.80;;;;;;5079303;28;20055;-58
2022/03/21 08:07:55;;;;;;;21.02;13.80;;;6.40;79.90;;;;;;5091004;28;20104;-57
2022/03/21 08:10:22;;;;;;;4.72;4.07;;;6.40;79.80;;;;;;5088268;28;20032;-57
2022/03/21 08:12:48;;;;;;;25.67;17.65;;;6.50;79.60;;;;;;5082682;28;20037;-55
2022/03/21 08:15:14;;;;;;;28.27;19.30;;;6.50;79.40;;;;;;5072151;28;20078;-57
2022/03/21 08:18:00;;;;;;;25.20;18.60;;;6.60;79.20;;;;;;5083759;28;20087;-60
2022/03/21 08:20:34;;;;;;;26.95;18.80;;;6.70;79.20;;;;;;5088513;28;20059;-60
2022/03/21 08:23:08;;;;;;;27.95;18.60;;;6.80;79.10;;;;;;5079287;28;20545;-57
2022/03/21 08:25:35;;;;;;;25.40;18.17;;;6.90;78.90;;;;;;5086877;28;20379;-57
2022/03/21 08:28:01;;;;;;;27.23;18.55;;;7.00;78.80;;;;;;5076261;28;20035;-54
2022/03/21 08:30:29;;;;;;;21.50;15.57;;;7.10;78.80;;;;;;5051183;28;20033;-57
2022/03/21 08:32:55;;;;;;;26.27;17.42;;;7.20;78.60;;;;;;5087632;28;20054;-57
2022/03/21 08:35:21;;;;;;;27.63;18.25;;;7.30;78.50;;;;;;5082833;28;20039;-54
2022/03/21 08:37:47;;;;;;;13.77;12.30;;;7.40;78.40;;;;;;5074799;28;20044;-62
2022/03/21 08:40:14;;;;;;;21.90;16.30;;;7.50;78.30;;;;;;5087445;28;20032;-59
2022/03/21 08:42:39;;;;;;;26.38;18.52;;;7.50;77.90;;;;;;5075805;28;20020;-58
2022/03/21 08:45:06;;;;;;;24.60;18.50;;;7.60;77.80;;;;;;5084575;28;20514;-56
2022/03/21 08:47:33;;;;;;;24.23;18.38;;;7.70;77.60;;;;;;5085671;28;20032;-57
2022/03/21 08:49:58;;;;;;;30.67;21.13;;;7.80;77.40;;;;;;5074894;28;20029;-60
2022/03/21 08:52:24;;;;;;;28.67;19.27;;;7.90;76.80;;;;;;5077990;28;20409;-57
2022/03/21 08:54:51;;;;;;;25.40;18.27;;;8.00;76.60;;;;;;5086342;28;20122;-60
2022/03/21 08:57:16;;;;;;;26.48;18.00;;;8.20;76.60;;;;;;5087314;28;20472;-60
2022/03/21 08:59:42;;;;;;;27.55;18.58;;;8.30;76.50;;;;;;5081515;28;20032;-60
2022/03/21 09:02:08;;;;;;;23.65;17.63;;;8.40;76.00;;;;;;5087198;28;20032;-60
2022/03/21 09:04:35;;;;;;;25.23;17.70;;;8.50;75.70;;;;;;5086793;28;20024;-59
2022/03/21 09:07:01;;;;;;;22.83;16.45;;;8.60;75.20;;;;;;5077671;28;20360;-60
2022/03/21 09:09:27;;;;;;;26.15;16.27;;;8.70;74.90;;;;;;5066618;28;20635;-60
2022/03/21 09:11:52;;;;;;;23.80;14.35;;;8.90;74.40;;;;;;5071816;28;20121;-60
2022/03/21 09:14:18;;;;;;;21.17;16.15;;;8.90;73.40;;;;;;5078187;28;20047;-60
2022/03/21 09:16:44;;;;;;;28.30;16.88;;;9.00;72.90;;;;;;5095623;28;20012;-60
2022/03/21 09:19:10;;;;;;;20.83;16.27;;;9.10;72.50;;;;;;5079763;28;20032;-60
2022/03/21 09:21:37;;;;;;;27.05;17.98;;;9.30;71.60;;;;;;5088111;28;20024;-60
2022/03/21 09:24:03;;;;;;;19.52;15.35;;;9.40;71.20;;;;;;5084074;28;20040;-60
2022/03/21 09:26:29;;;;;;;20.77;15.07;;;9.40;71.10;;;;;;5093651;28;20027;-57
2022/03/21 09:29:05;;;;;;;22.52;16.30;;;9.60;70.90;;;;;;5075633;28;20029;-60
2022/03/21 09:31:31;;;;;;;23.08;16.67;;;9.70;70.70;;;;;;5086324;28;20032;-60
2022/03/21 09:33:57;;;;;;;21.70;16.20;;;9.80;70.30;;;;;;5073282;28;20423;-57
2022/03/21 09:36:23;;;;;;;26.45;18.02;;;9.90;70.10;;;;;;5085935;28;20286;-56
2022/03/21 09:38:49;;;;;;;21.38;15.77;;;10.00;69.30;;;;;;5074522;28;20021;-56
2022/03/21 09:41:22;;;;;;;22.20;16.30;;;10.10;68.80;;;;;;5086226;28;20715;-56
2022/03/21 09:43:51;;;;;;;21.60;15.75;;;10.30;68.70;;;;;;5081883;28;20088;-55
2022/03/21 09:46:17;;;;;;;18.52;14.07;;;10.40;68.30;;;;;;5089249;28;20022;-57
2022/03/21 09:48:53;;;;;;;20.08;14.25;;;10.60;67.10;;;;;;5084078;28;20028;-56
2022/03/21 09:51:27;;;;;;;18.92;14.45;;;10.70;66.40;;;;;;5070667;28;20042;-60
2022/03/21 09:53:54;;;;;;;17.48;13.50;;;10.80;65.30;;;;;;5078369;28;20521;-60
2022/03/21 09:56:20;;;;;;;16.58;12.82;;;10.90;64.50;;;;;;5075067;28;20013;-55
2022/03/21 09:58:47;;;;;;;14.63;11.90;;;11.00;64.50;;;;;;5089212;28;20120;-61
2022/03/21 10:01:14;;;;;;;17.60;13.45;;;11.10;64.40;;;;;;5080349;28;20017;-56
2022/03/21 10:03:40;;;;;;;23.27;15.65;;;11.30;64.00;;;;;;5076651;28;20498;-57
2022/03/21 10:06:26;;;;;;;20.30;14.57;;;11.40;62.90;;;;;;5087589;28;20059;-57
2022/03/21 10:09:03;;;;;;;19.05;14.77;;;11.50;62.70;;;;;;5087399;28;20032;-54
2022/03/21 10:11:29;;;;;;;19.67;14.90;;;11.60;62.20;;;;;;5069993;28;20070;-61
2022/03/21 10:13:54;;;;;;;19.90;14.38;;;11.60;62.10;;;;;;5090437;28;20054;-61
2022/03/21 10:16:20;;;;;;;21.98;15.95;;;11.70;62.40;;;;;;5079952;28;20043;-57
2022/03/21 10:18:52;;;;;;;25.80;18.27;;;11.90;62.50;;;;;;5081191;28;20036;-56
2022/03/21 10:21:17;;;;;;;24.30;17.38;;;11.90;61.90;;;;;;5084091;28;20032;-61
2022/03/21 10:23:44;;;;;;;25.00;17.83;;;12.00;62.00;;;;;;5071259;28;20621;-57
2022/03/21 10:26:30;;;;;;;25.95;17.45;;;12.10;62.10;;;;;;5076526;28;20035;-57
2022/03/21 10:28:58;;;;;;;25.13;16.88;;;12.20;61.80;;;;;;5081309;28;20020;-60
2022/03/21 10:31:53;;;;;;;21.52;16.15;;;12.30;62.00;;;;;;5084941;28;20047;-61
2022/03/21 10:34:22;;;;;;;22.95;16.55;;;12.50;62.20;;;;;;5056752;28;20070;-56
2022/03/21 10:37:17;;;;;;;21.13;16.73;;;12.60;61.50;;;;;;5084821;28;20103;-58
2022/03/21 10:39:50;;;;;;;22.30;16.45;;;12.70;61.50;;;;;;5076069;28;20052;-58
2022/03/21 10:42:16;;;;;;;21.38;15.50;;;12.80;61.10;;;;;;5081213;28;20430;-57
2022/03/21 10:44:54;;;;;;;21.20;16.23;;;13.00;61.10;;;;;;5081536;28;20036;-58
2022/03/21 10:47:20;;;;;;;25.90;19.10;;;13.10;60.90;;;;;;5085107;28;20036;-59
2022/03/21 10:49:45;;;;;;;20.70;16.60;;;13.30;60.10;;;;;;5073244;28;20037;-56
2022/03/21 10:52:19;;;;;;;23.85;17.58;;;13.40;60.30;;;;;;5076427;28;20099;-62
2022/03/21 10:54:49;;;;;;;23.77;16.70;;;13.50;60.10;;;;;;5069298;28;20129;-64
2022/03/21 10:57:36;;;;;;;19.60;16.15;;;13.60;60.00;;;;;;5080836;28;20461;-63
2022/03/21 11:00:22;;;;;;;21.27;16.75;;;13.70;59.60;;;;;;5084584;28;20145;-63
2022/03/21 11:02:53;;;;;;;21.33;15.85;;;13.80;59.00;;;;;;5070410;28;20514;-58
2022/03/21 11:05:19;;;;;;;23.75;17.92;;;13.90;58.60;;;;;;5069333;28;20052;-59
2022/03/21 11:07:49;;;;;;;20.92;16.15;;;14.00;57.70;;;;;;5073123;28;20094;-59
2022/03/21 11:10:15;;;;;;;18.27;15.20;;;14.10;57.90;;;;;;5078326;28;20039;-59
2022/03/21 11:12:42;;;;;;;19.05;14.77;;;14.20;58.20;;;;;;5087737;28;20038;-59
2022/03/21 11:15:09;;;;;;;20.35;15.65;;;14.40;58.20;;;;;;5073759;28;20033;-59
2022/03/21 11:17:36;;;;;;;21.05;16.25;;;14.60;58.30;;;;;;5088700;28;20042;-63
2022/03/21 11:20:03;;;;;;;26.20;16.52;;;14.70;57.50;;;;;;5089554;28;20119;-63
2022/03/21 11:22:29;;;;;;;20.90;16.45;;;14.90;57.20;;;;;;5089355;28;20499;-63
2022/03/21 11:25:01;;;;;;;22.17;16.23;;;15.00;56.50;;;;;;5087979;28;20031;-63
2022/03/21 11:27:35;;;;;;;20.65;16.13;;;15.10;56.60;;;;;;5096066;28;20089;-63
2022/03/21 11:30:37;;;;;;;22.08;17.33;;;15.20;56.50;;;;;;5087708;28;20059;-59
2022/03/21 11:33:18;;;;;;;22.92;14.40;;;15.40;55.90;;;;;;5087691;28;20044;-58
2022/03/21 11:35:59;;;;;;;20.05;14.95;;;15.50;55.70;;;;;;5068597;28;20112;-63
2022/03/21 11:38:30;;;;;;;18.02;13.65;;;15.60;54.90;;;;;;5068750;28;20061;-59
2022/03/21 11:41:14;;;;;;;16.50;13.23;;;15.70;54.90;;;;;;5068987;28;20025;-59
2022/03/21 11:43:45;;;;;;;15.43;12.05;;;15.90;54.80;;;;;;5068583;28;20387;-63
2022/03/21 11:46:23;;;;;;;15.70;10.90;;;16.00;54.40;;;;;;5074716;28;20024;-63
2022/03/21 11:48:48;;;;;;;7.80;6.93;;;16.10;53.60;;;;;;5086872;28;20089;-64
2022/03/21 11:51:14;;;;;;;18.02;10.70;;;16.30;52.20;;;;;;5087121;28;20234;-64
2022/03/21 11:53:51;;;;;;;14.90;10.10;;;16.40;49.70;;;;;;5089415;28;20111;-64
2022/03/21 11:56:37;;;;;;;13.52;10.13;;;16.40;49.80;;;;;;5088732;28;20379;-59
2022/03/21 11:59:03;;;;;;;13.10;10.05;;;16.50;49.60;;;;;;5088704;28;20552;-64
2022/03/21 12:01:30;;;;;;;12.82;10.18;;;16.60;50.50;;;;;;5088344;28;20028;-64
2022/03/21 12:04:37;;;;;;;6.03;4.53;;;16.70;50.60;;;;;;5088942;28;20390;-64
2022/03/21 12:07:12;;;;;;;11.13;9.38;;;16.90;50.70;;;;;;5087013;28;20489;-64
2022/03/21 12:09:45;;;;;;;12.57;9.68;;;17.00;48.90;;;;;;5080670;28;20028;-64
2022/03/21 12:12:13;;;;;;;14.90;11.10;;;17.10;49.40;;;;;;5080387;28;20115;-64
2022/03/21 12:14:45;;;;;;;15.45;12.23;;;17.30;48.50;;;;;;5085364;28;20024;-64
2022/03/21 12:17:14;;;;;;;14.65;12.10;;;17.40;48.40;;;;;;5080421;28;20420;-64
2022/03/21 12:19:48;;;;;;;13.90;11.77;;;17.40;48.20;;;;;;5070764;28;20089;-64
2022/03/21 12:22:39;;;;;;;13.55;11.27;;;17.40;48.60;;;;;;5076508;28;20483;-64
2022/03/21 12:25:10;;;;;;;14.98;11.18;;;17.50;48.70;;;;;;5081039;28;20040;-60
2022/03/21 12:27:53;;;;;;;11.43;9.40;;;17.60;48.60;;;;;;5088375;28;20024;-64
2022/03/21 12:30:23;;;;;;;16.52;10.95;;;17.70;48.40;;;;;;5078252;28;20170;-64
2022/03/21 12:32:53;;;;;;;13.60;10.35;;;17.90;48.60;;;;;;5082261;28;20052;-60
2022/03/21 12:35:40;;;;;;;14.63;11.10;;;18.00;48.80;;;;;;5087175;28;20036;-59
2022/03/21 12:38:22;;;;;;;17.17;12.38;;;18.10;48.00;;;;;;5082983;28;20034;-59
2022/03/21 12:40:50;;;;;;;18.33;12.52;;;18.20;47.80;;;;;;5087123;28;20039;-60
2022/03/21 12:43:27;;;;;;;14.70;12.48;;;18.30;47.70;;;;;;5067985;28;20036;-64
2022/03/21 12:46:08;;;;;;;13.70;11.35;;;18.50;47.50;;;;;;5067793;28;20032;-64
2022/03/21 12:48:40;;;;;;;16.43;12.60;;;18.60;47.70;;;;;;5076249;28;20028;-64
2022/03/21 12:51:07;;;;;;;18.00;13.13;;;18.70;47.50;;;;;;5087426;28;20580;-59
2022/03/21 12:53:49;;;;;;;16.10;12.02;;;18.80;47.30;;;;;;5082192;28;20098;-60
2022/03/21 12:56:19;;;;;;;16.90;12.73;;;18.90;47.50;;;;;;5070088;28;20819;-59
2022/03/21 12:58:47;;;;;;;14.80;12.20;;;19.00;46.40;;;;;;5087778;28;20040;-60
2022/03/21 13:01:14;;;;;;;12.52;11.20;;;19.00;46.80;;;;;;5080069;28;20028;-59